Eden, Wisconsin
Current Conditions -  °F | °C
As of 4:53 AM on Thursday 18 Dec 2014 (Local Time) from KFLD Reporting Station
Overcast Overcast  
Wind Chill: 18°   Ceiling: 1700
Heat Index: 24°   Visibility: 10mi
Dew Point: 18°   Wind: 5mph
Humidity: 77%   Direction: 280°W
Pressure: 30.26"   Gusts: NA
Location:  43.69°N, 88.36°W
Report Text: KFLD 181053Z AUTO 28004KT 10SM OVC017 M04/M08 A3026 RMK AO2 SLP261 T10441078
Loading
Personal Weather Stations






























Interactive Weather Map New forecast layout! Learn more

10-Day Weather Forecast

Advertisements
Track Severe Weather on mobile